Time;durP1;ratioP1;P1;durP2;ratioP2;P2;SDS_P1;SDS_P2;PMS_P1;PMS_P2;Temp;Humidity;BMP_temperature;BMP_pressure;BME280_temperature;BME280_humidity;BME280_pressure;Samples;Min_cycle;Max_cycle;Signal;HPM_P1;HPM_P2
2021/03/11 00:00:41;;;;;;;23.92;15.27;;;6.20;99.90;;;;;;5112833;28;20119;-57
2021/03/11 00:03:08;;;;;;;25.23;15.15;;;6.20;99.90;;;;;;5112516;28;20430;-58
2021/03/11 00:05:38;;;;;;;28.73;16.00;;;6.20;99.90;;;;;;5094255;28;20052;-57
2021/03/11 00:08:04;;;;;;;27.50;15.32;;;6.20;99.90;;;;;;5112421;28;20400;-57
2021/03/11 00:10:30;;;;;;;29.40;16.63;;;6.20;99.90;;;;;;5112484;28;20039;-57
2021/03/11 00:12:56;;;;;;;27.50;16.58;;;6.30;99.90;;;;;;5112507;28;20093;-57
2021/03/11 00:15:23;;;;;;;29.40;16.92;;;6.20;99.90;;;;;;5112347;28;20435;-57
2021/03/11 00:17:49;;;;;;;25.15;15.10;;;6.30;99.90;;;;;;5112878;28;20039;-57
2021/03/11 00:20:18;;;;;;;28.88;16.38;;;6.30;99.90;;;;;;5112513;28;20044;-58
2021/03/11 00:22:44;;;;;;;26.88;18.17;;;6.30;99.90;;;;;;5113344;28;20071;-58
2021/03/11 00:25:12;;;;;;;29.10;16.10;;;6.20;99.90;;;;;;5116589;28;20044;-57
2021/03/11 00:27:38;;;;;;;26.80;15.25;;;6.20;99.90;;;;;;5116291;28;20044;-57
2021/03/11 00:30:06;;;;;;;23.50;14.88;;;6.20;99.90;;;;;;5116352;28;20048;-58
2021/03/11 00:32:32;;;;;;;27.15;15.38;;;6.20;99.90;;;;;;5116070;28;20057;-57
2021/03/11 00:34:57;;;;;;;25.33;15.70;;;6.30;99.90;;;;;;5116114;28;20050;-57
2021/03/11 00:37:23;;;;;;;26.00;15.32;;;6.30;99.90;;;;;;5116007;28;20032;-57
2021/03/11 00:39:49;;;;;;;23.98;13.45;;;6.30;99.90;;;;;;5115980;28;20046;-57
2021/03/11 00:42:15;;;;;;;22.88;14.38;;;6.30;99.90;;;;;;5115843;28;20051;-58
2021/03/11 00:44:40;;;;;;;24.50;14.05;;;6.40;99.90;;;;;;5116103;28;20047;-57
2021/03/11 00:47:07;;;;;;;24.85;14.32;;;6.40;99.90;;;;;;5116131;28;20036;-58
2021/03/11 00:49:34;;;;;;;24.80;14.68;;;6.40;99.90;;;;;;5115689;28;20546;-58
2021/03/11 00:52:00;;;;;;;20.88;13.75;;;6.40;99.90;;;;;;5116152;28;20047;-58
2021/03/11 00:54:27;;;;;;;24.77;14.32;;;6.40;99.90;;;;;;5115822;28;20100;-57
2021/03/11 00:56:53;;;;;;;21.52;13.73;;;6.40;99.90;;;;;;5115878;28;20047;-58
2021/03/11 00:59:19;;;;;;;22.27;14.27;;;6.40;99.90;;;;;;5115825;28;20467;-57
2021/03/11 01:01:45;;;;;;;23.17;13.50;;;6.40;99.90;;;;;;5115919;28;20069;-57
2021/03/11 01:04:12;;;;;;;22.33;13.45;;;6.40;99.90;;;;;;5115803;28;20047;-58
2021/03/11 01:06:37;;;;;;;20.35;12.50;;;6.50;99.90;;;;;;5115554;28;20397;-57
2021/03/11 01:09:04;;;;;;;20.77;12.05;;;6.50;99.90;;;;;;5115235;28;20035;-57
2021/03/11 01:11:29;;;;;;;20.45;12.98;;;6.50;99.90;;;;;;5115481;28;20043;-57
2021/03/11 01:13:55;;;;;;;18.73;11.82;;;6.60;99.90;;;;;;5115788;28;20108;-57
2021/03/11 01:16:21;;;;;;;20.45;13.77;;;6.60;99.90;;;;;;5115560;28;20075;-57
2021/03/11 01:18:47;;;;;;;20.88;12.38;;;6.60;99.90;;;;;;5115334;28;20043;-57
2021/03/11 01:21:12;;;;;;;19.88;12.57;;;6.60;99.90;;;;;;5115010;28;20048;-58
2021/03/11 01:23:38;;;;;;;22.13;14.50;;;6.60;99.90;;;;;;5115317;28;20055;-57
2021/03/11 01:26:04;;;;;;;20.60;12.65;;;6.60;99.90;;;;;;5115504;28;20066;-58
2021/03/11 01:28:29;;;;;;;25.90;13.93;;;6.60;99.90;;;;;;5114922;28;20093;-58
2021/03/11 01:30:55;;;;;;;25.08;14.25;;;6.60;99.90;;;;;;5115014;28;20081;-58
2021/03/11 01:33:21;;;;;;;21.27;13.70;;;6.60;99.90;;;;;;5115132;28;20050;-58
2021/03/11 01:35:47;;;;;;;23.58;14.18;;;6.70;99.90;;;;;;5113579;28;20050;-58
2021/03/11 01:38:13;;;;;;;20.77;13.05;;;6.60;99.90;;;;;;5115049;28;20088;-58
2021/03/11 01:40:38;;;;;;;27.23;15.00;;;6.60;99.90;;;;;;5114684;28;20122;-58
2021/03/11 01:43:04;;;;;;;23.42;13.80;;;6.60;99.90;;;;;;5114755;28;20055;-58
2021/03/11 01:45:30;;;;;;;21.73;12.88;;;6.60;99.90;;;;;;5115326;28;20148;-58
2021/03/11 01:47:56;;;;;;;20.42;12.30;;;6.70;99.90;;;;;;5115052;28;20043;-58
2021/03/11 01:50:22;;;;;;;20.23;12.35;;;6.70;99.90;;;;;;5114795;28;20051;-58
2021/03/11 01:52:48;;;;;;;18.50;13.27;;;6.70;99.90;;;;;;5114712;28;20045;-57
2021/03/11 01:55:16;;;;;;;18.80;12.77;;;6.60;99.90;;;;;;5114620;28;20063;-58
2021/03/11 01:57:44;;;;;;;17.67;11.90;;;6.70;99.90;;;;;;5114573;28;20146;-57
2021/03/11 02:00:11;;;;;;;22.17;13.13;;;6.70;99.90;;;;;;5114412;28;20043;-58
2021/03/11 02:02:43;;;;;;;18.52;12.23;;;6.70;99.90;;;;;;5114052;28;20487;-58
2021/03/11 02:05:16;;;;;;;17.02;11.45;;;6.70;99.90;;;;;;5114251;28;20040;-58
2021/03/11 02:07:43;;;;;;;19.17;11.93;;;6.70;99.90;;;;;;5114534;28;20039;-58
2021/03/11 02:10:11;;;;;;;21.73;12.77;;;6.70;99.90;;;;;;5114457;28;20396;-58
2021/03/11 02:12:56;;;;;;;20.27;12.90;;;6.70;99.90;;;;;;5114395;28;20066;-58
2021/03/11 02:15:36;;;;;;;19.48;12.02;;;6.70;99.90;;;;;;5114159;28;20075;-58
2021/03/11 02:18:22;;;;;;;18.80;12.43;;;6.70;99.90;;;;;;5113947;28;20032;-57
2021/03/11 02:21:05;;;;;;;18.58;11.02;;;6.70;99.90;;;;;;5114432;28;20074;-58
2021/03/11 02:24:06;;;;;;;18.60;12.10;;;6.80;99.90;;;;;;5114275;28;20127;-57
2021/03/11 02:27:08;;;;;;;18.85;11.73;;;6.80;99.90;;;;;;5113956;28;20043;-58
2021/03/11 02:29:39;;;;;;;24.25;12.50;;;6.90;99.90;;;;;;4991798;28;20101;-58
2021/03/11 02:32:10;;;;;;;19.85;11.65;;;6.90;99.90;;;;;;4991740;28;20100;-57
2021/03/11 02:34:47;;;;;;;18.80;11.82;;;6.90;99.90;;;;;;4991625;28;20077;-58
2021/03/11 02:37:37;;;;;;;18.60;11.25;;;6.90;99.90;;;;;;4991615;28;20054;-57
2021/03/11 02:40:15;;;;;;;16.40;10.80;;;6.90;99.90;;;;;;4991858;28;20494;-57
2021/03/11 02:42:43;;;;;;;18.75;11.88;;;7.00;99.90;;;;;;4991347;28;20058;-58
2021/03/11 02:45:17;;;;;;;21.35;12.68;;;7.00;99.90;;;;;;4991388;28;20055;-58
2021/03/11 02:47:43;;;;;;;17.13;11.10;;;7.00;99.90;;;;;;4991650;28;20052;-58
2021/03/11 02:50:10;;;;;;;19.20;11.80;;;7.00;99.90;;;;;;4991305;28;20050;-58
2021/03/11 02:52:37;;;;;;;15.85;11.05;;;7.00;99.90;;;;;;4991323;28;20108;-58
2021/03/11 02:55:04;;;;;;;18.58;12.00;;;7.00;99.90;;;;;;4991302;28;20108;-58
2021/03/11 02:57:31;;;;;;;16.95;11.93;;;7.00;99.90;;;;;;4991465;28;20043;-58
2021/03/11 03:00:01;;;;;;;19.42;12.27;;;7.00;99.90;;;;;;4991523;28;20117;-58
2021/03/11 03:02:28;;;;;;;18.27;11.40;;;7.00;99.90;;;;;;4996703;28;20118;-58
2021/03/11 03:04:56;;;;;;;14.60;9.98;;;7.00;99.90;;;;;;5092891;28;20032;-58
2021/03/11 03:07:23;;;;;;;15.85;11.18;;;7.00;99.90;;;;;;5093332;28;20047;-58
2021/03/11 03:09:51;;;;;;;17.40;11.18;;;7.00;99.90;;;;;;5092919;28;20047;-57
2021/03/11 03:12:19;;;;;;;16.00;9.98;;;7.00;99.90;;;;;;5093253;28;20047;-58
2021/03/11 03:14:47;;;;;;;16.65;10.80;;;7.10;99.90;;;;;;5092828;28;20382;-57
2021/03/11 03:17:16;;;;;;;17.60;10.88;;;7.00;99.90;;;;;;5093186;28;20119;-57
2021/03/11 03:19:44;;;;;;;20.05;10.82;;;7.10;99.90;;;;;;5093181;28;20093;-57
2021/03/11 03:22:11;;;;;;;17.33;11.00;;;7.00;99.90;;;;;;5092679;28;20466;-58
2021/03/11 03:24:38;;;;;;;14.20;9.07;;;7.10;99.90;;;;;;5092552;28;20409;-58
2021/03/11 03:27:04;;;;;;;14.18;9.43;;;7.10;99.90;;;;;;5093035;28;20090;-58
2021/03/11 03:29:29;;;;;;;16.85;10.20;;;7.10;99.90;;;;;;5092598;28;20068;-58
2021/03/11 03:31:55;;;;;;;15.48;9.77;;;7.10;99.90;;;;;;5092668;28;20506;-58
2021/03/11 03:34:21;;;;;;;14.63;9.57;;;7.10;99.90;;;;;;5093145;28;20055;-58
2021/03/11 03:36:47;;;;;;;12.82;9.43;;;7.10;99.90;;;;;;5092685;28;20043;-58
2021/03/11 03:39:13;;;;;;;18.55;10.18;;;7.10;99.90;;;;;;5092477;28;20367;-57
2021/03/11 03:41:44;;;;;;;16.50;9.55;;;7.20;99.90;;;;;;5094060;28;20043;-57
2021/03/11 03:44:12;;;;;;;15.45;10.13;;;7.20;99.90;;;;;;5113125;28;20130;-57
2021/03/11 03:46:39;;;;;;;14.65;9.68;;;7.20;99.90;;;;;;5113106;28;20124;-58
2021/03/11 03:49:09;;;;;;;14.68;8.95;;;7.30;99.90;;;;;;5113065;28;20080;-58
2021/03/11 03:51:37;;;;;;;13.45;9.68;;;7.20;99.90;;;;;;5112824;28;20048;-57
2021/03/11 03:54:11;;;;;;;13.15;9.55;;;7.20;99.90;;;;;;5112998;28;20046;-58
2021/03/11 03:56:43;;;;;;;14.02;9.02;;;7.30;99.90;;;;;;5113083;28;20047;-58
2021/03/11 03:59:13;;;;;;;14.80;10.45;;;7.30;99.90;;;;;;5116424;28;20047;-58
2021/03/11 04:01:41;;;;;;;14.02;10.02;;;7.30;99.90;;;;;;5117332;28;20090;-58
2021/03/11 04:04:09;;;;;;;12.50;9.15;;;7.30;99.90;;;;;;5098888;28;20561;-58
2021/03/11 04:06:38;;;;;;;16.63;10.82;;;7.40;99.90;;;;;;5116985;28;20477;-58
2021/03/11 04:09:11;;;;;;;15.63;10.48;;;7.40;99.90;;;;;;5116806;28;20061;-58
2021/03/11 04:11:37;;;;;;;14.55;10.88;;;7.40;99.90;;;;;;5116972;28;20066;-58
2021/03/11 04:14:04;;;;;;;14.88;10.45;;;7.40;99.90;;;;;;5098484;28;20054;-58
2021/03/11 04:16:31;;;;;;;13.63;9.20;;;7.50;99.90;;;;;;5116759;28;20047;-57
2021/03/11 04:18:58;;;;;;;16.52;10.40;;;7.50;99.90;;;;;;5116851;28;20048;-58
2021/03/11 04:21:26;;;;;;;16.55;10.68;;;7.50;99.90;;;;;;5116847;28;20044;-58
2021/03/11 04:23:53;;;;;;;17.42;10.82;;;7.50;99.90;;;;;;5116603;28;20449;-59
2021/03/11 04:26:20;;;;;;;14.05;10.07;;;7.50;99.90;;;;;;5116404;28;20541;-58
2021/03/11 04:28:48;;;;;;;14.97;10.23;;;7.50;99.90;;;;;;5116780;28;20035;-58
2021/03/11 04:31:14;;;;;;;15.95;10.15;;;7.60;99.90;;;;;;5116738;28;20044;-58
2021/03/11 04:33:42;;;;;;;14.80;11.48;;;7.60;99.90;;;;;;5116950;28;20036;-58
2021/03/11 04:36:09;;;;;;;16.25;11.25;;;7.60;99.90;;;;;;5116282;28;20395;-58
2021/03/11 04:38:35;;;;;;;16.15;11.45;;;7.60;99.90;;;;;;5116463;28;20388;-58
2021/03/11 04:41:01;;;;;;;15.68;10.52;;;7.70;99.90;;;;;;5116383;28;20036;-58
2021/03/11 04:43:27;;;;;;;16.35;10.93;;;7.70;99.90;;;;;;5116069;28;20052;-58
2021/03/11 04:45:55;;;;;;;15.35;11.23;;;7.80;99.90;;;;;;5116274;28;20097;-58
2021/03/11 04:48:22;;;;;;;17.77;11.45;;;7.80;99.90;;;;;;5116636;28;20044;-58
2021/03/11 04:50:49;;;;;;;18.88;11.77;;;7.80;99.90;;;;;;5116422;28;20392;-58
2021/03/11 04:53:16;;;;;;;13.85;10.05;;;7.90;99.90;;;;;;5097913;28;20135;-58
2021/03/11 04:55:43;;;;;;;13.80;10.43;;;7.90;99.90;;;;;;5116240;28;20051;-58
2021/03/11 04:58:09;;;;;;;15.10;10.15;;;8.00;99.90;;;;;;5116011;28;20051;-58
2021/03/11 05:00:38;;;;;;;14.85;10.27;;;8.00;99.90;;;;;;5116023;28;20047;-58
2021/03/11 05:03:08;;;;;;;13.13;10.35;;;8.00;99.90;;;;;;5115701;28;20040;-58
2021/03/11 05:05:40;;;;;;;14.27;9.40;;;8.10;99.90;;;;;;5115850;28;20039;-58
2021/03/11 05:08:07;;;;;;;12.02;9.50;;;8.10;99.90;;;;;;5115424;28;20405;-58
2021/03/11 05:10:33;;;;;;;13.57;9.65;;;8.20;99.90;;;;;;5115898;28;20040;-58
2021/03/11 05:12:59;;;;;;;12.10;10.10;;;8.20;99.90;;;;;;5115868;28;20044;-58
2021/03/11 05:15:25;;;;;;;16.73;10.27;;;8.20;99.90;;;;;;5115588;28;20084;-58
2021/03/11 05:17:52;;;;;;;14.60;9.52;;;8.20;99.90;;;;;;5115619;28;20039;-58
2021/03/11 05:20:18;;;;;;;14.27;10.35;;;8.30;99.90;;;;;;5115316;28;20434;-58
2021/03/11 05:22:44;;;;;;;14.25;10.05;;;8.30;99.90;;;;;;5096577;28;20047;-58
2021/03/11 05:25:11;;;;;;;14.50;10.43;;;8.30;99.90;;;;;;5115703;28;20362;-58
2021/03/11 05:27:39;;;;;;;14.40;9.63;;;8.40;99.90;;;;;;5115472;28;20039;-59
2021/03/11 05:30:11;;;;;;;17.08;10.18;;;8.40;99.90;;;;;;5115526;28;20054;-58
2021/03/11 05:32:37;;;;;;;17.52;10.00;;;8.50;99.90;;;;;;5115125;28;20130;-58
2021/03/11 05:35:04;;;;;;;16.58;10.32;;;8.50;99.90;;;;;;5115094;28;20504;-58
2021/03/11 05:37:30;;;;;;;15.35;10.35;;;8.40;99.90;;;;;;5115216;28;20474;-58
2021/03/11 05:39:59;;;;;;;15.40;10.13;;;8.40;99.90;;;;;;5115277;28;20043;-58
2021/03/11 05:42:25;;;;;;;;;;;8.40;99.90;;;;;;5115179;28;20076;-58
2021/03/11 05:44:54;;;;;;;16.48;9.35;;;8.40;99.90;;;;;;5115017;28;20002;-58
2021/03/11 05:47:22;;;;;;;18.50;10.43;;;8.50;99.90;;;;;;5115180;28;20103;-58
2021/03/11 05:49:48;;;;;;;16.95;10.02;;;8.50;99.90;;;;;;5114974;28;20133;-58
2021/03/11 05:52:14;;;;;;;17.35;10.93;;;8.50;99.90;;;;;;5115324;28;20044;-58
2021/03/11 05:54:40;;;;;;;14.00;10.13;;;8.50;99.90;;;;;;5114735;28;20054;-58
2021/03/11 05:57:07;;;;;;;15.07;10.13;;;8.60;99.90;;;;;;5115124;28;20093;-58
2021/03/11 05:59:34;;;;;;;15.63;10.32;;;8.70;99.90;;;;;;5115141;28;20096;-58
2021/03/11 06:02:07;;;;;;;15.48;10.35;;;8.70;99.90;;;;;;5114891;28;20044;-58
2021/03/11 06:04:34;;;;;;;19.67;10.98;;;8.70;99.90;;;;;;5114839;28;20042;-58
2021/03/11 06:07:02;;;;;;;17.52;11.18;;;8.80;99.90;;;;;;5114595;28;20043;-59
2021/03/11 06:09:29;;;;;;;17.13;10.05;;;8.80;99.90;;;;;;5095989;28;20040;-58
2021/03/11 06:11:56;;;;;;;16.80;10.63;;;8.80;99.90;;;;;;5114453;28;20046;-58
2021/03/11 06:14:31;;;;;;;14.27;10.18;;;8.80;99.90;;;;;;5114443;28;20048;-58
2021/03/11 06:17:00;;;;;;;17.77;9.95;;;8.80;99.90;;;;;;5114232;28;20488;-58
2021/03/11 06:19:27;;;;;;;17.00;11.90;;;8.80;99.90;;;;;;5114770;28;20104;-58
2021/03/11 06:21:53;;;;;;;12.32;9.70;;;8.80;99.90;;;;;;5113684;28;20084;-58
2021/03/11 06:24:21;;;;;;;12.65;9.55;;;8.80;99.90;;;;;;5114042;28;20071;-58
2021/03/11 06:26:47;;;;;;;17.58;9.98;;;8.80;99.90;;;;;;5114027;28;20042;-57
2021/03/11 06:29:16;;;;;;;15.45;10.25;;;8.90;99.90;;;;;;5114301;28;20063;-58
2021/03/11 06:31:42;;;;;;;12.75;8.63;;;8.90;99.90;;;;;;5114031;28;20043;-58
2021/03/11 06:34:19;;;;;;;12.93;8.23;;;8.80;99.90;;;;;;5114127;28;20043;-59
2021/03/11 06:36:45;;;;;;;19.00;7.93;;;8.80;99.90;;;;;;5114255;28;20071;-58
2021/03/11 06:39:34;;;;;;;10.13;6.95;;;8.80;99.90;;;;;;5114074;28;20519;-58
2021/03/11 06:42:00;;;;;;;12.32;8.02;;;8.90;99.90;;;;;;5113714;28;20048;-58
2021/03/11 06:44:36;;;;;;;11.48;7.45;;;8.90;99.90;;;;;;5113801;28;20500;-59
2021/03/11 06:47:05;;;;;;;9.75;7.18;;;8.90;99.90;;;;;;5113578;28;20114;-58
2021/03/11 06:49:31;;;;;;;14.38;7.63;;;9.00;99.90;;;;;;5113952;28;20123;-58
2021/03/11 06:52:10;;;;;;;13.88;8.65;;;9.00;99.90;;;;;;5095486;28;20556;-58
2021/03/11 06:54:55;;;;;;;14.23;9.00;;;9.00;99.90;;;;;;5113340;28;20127;-58
2021/03/11 06:57:24;;;;;;;13.48;9.00;;;9.10;99.90;;;;;;5113481;28;20074;-58
2021/03/11 06:59:51;;;;;;;12.65;8.63;;;9.10;99.90;;;;;;5113681;28;20225;-58
2021/03/11 07:02:20;;;;;;;12.38;8.60;;;9.10;99.90;;;;;;5113402;28;20054;-58
2021/03/11 07:04:46;;;;;;;;;;;9.20;99.90;;;;;;5113703;28;20036;-58
2021/03/11 07:07:29;;;;;;;14.77;8.23;;;9.20;99.90;;;;;;5113617;28;20011;-58
2021/03/11 07:09:55;;;;;;;12.18;8.73;;;9.20;99.90;;;;;;5113754;28;20070;-59
2021/03/11 07:12:21;;;;;;;14.77;8.05;;;9.20;99.90;;;;;;5113652;28;20557;-58
2021/03/11 07:14:50;;;;;;;18.52;9.25;;;9.20;99.90;;;;;;5112852;28;20533;-58
2021/03/11 07:17:24;;;;;;;16.02;9.80;;;9.30;99.90;;;;;;5094772;28;20035;-58
2021/03/11 07:20:14;;;;;;;13.93;7.97;;;9.40;99.90;;;;;;5112909;28;20041;-58
2021/03/11 07:22:41;;;;;;;11.88;8.32;;;9.50;99.90;;;;;;5112901;28;20074;-58
2021/03/11 07:25:31;;;;;;;14.48;8.93;;;9.40;99.90;;;;;;5112726;28;20496;-57
2021/03/11 07:27:57;;;;;;;13.88;7.90;;;9.50;99.90;;;;;;5113083;28;20040;-58
2021/03/11 07:30:25;;;;;;;17.38;8.13;;;9.40;99.90;;;;;;5112799;28;20386;-58
2021/03/11 07:32:57;;;;;;;17.13;8.48;;;9.40;99.90;;;;;;5112589;28;20542;-58
2021/03/11 07:35:25;;;;;;;13.77;7.32;;;9.60;99.90;;;;;;5113076;28;20046;-58
2021/03/11 07:37:54;;;;;;;16.13;7.53;;;9.50;99.90;;;;;;5112620;28;20499;-59
2021/03/11 07:40:20;;;;;;;17.20;7.80;;;9.60;99.90;;;;;;5112497;28;20035;-58
2021/03/11 07:42:46;;;;;;;15.45;7.22;;;9.50;99.90;;;;;;5112532;28;20104;-58
2021/03/11 07:45:13;;;;;;;17.33;7.65;;;9.50;99.90;;;;;;5112782;28;20031;-58
2021/03/11 07:47:41;;;;;;;17.75;6.75;;;9.50;99.90;;;;;;5112628;28;20059;-58
2021/03/11 07:50:12;;;;;;;20.58;6.90;;;9.60;99.90;;;;;;5112236;28;20070;-58
2021/03/11 07:52:40;;;;;;;15.68;7.20;;;9.50;99.90;;;;;;5113054;28;20094;-59
2021/03/11 07:55:07;;;;;;;14.55;7.35;;;9.60;99.90;;;;;;5112841;28;20075;-58
2021/03/11 07:57:38;;;;;;;15.70;6.43;;;9.60;99.90;;;;;;5112654;28;20048;-58
2021/03/11 08:00:05;;;;;;;18.88;6.93;;;9.50;99.90;;;;;;5112734;28;20108;-59
2021/03/11 08:02:33;;;;;;;16.15;7.68;;;9.60;99.90;;;;;;5112618;28;20071;-58
2021/03/11 08:05:00;;;;;;;18.33;6.40;;;9.60;99.90;;;;;;5112751;28;20050;-58
2021/03/11 08:07:27;;;;;;;18.90;6.85;;;9.60;99.90;;;;;;5112322;28;20485;-58
2021/03/11 08:09:57;;;;;;;21.40;6.88;;;9.60;99.90;;;;;;5112314;28;20111;-58
2021/03/11 08:12:29;;;;;;;22.13;7.07;;;9.60;99.90;;;;;;5112521;28;20043;-58
2021/03/11 08:14:56;;;;;;;19.63;5.75;;;9.70;99.90;;;;;;5112220;28;20553;-59
2021/03/11 08:17:34;;;;;;;23.40;6.20;;;9.70;99.90;;;;;;5112287;28;20474;-58
2021/03/11 08:20:01;;;;;;;22.83;5.65;;;9.80;99.90;;;;;;5112299;28;20419;-58
2021/03/11 08:22:52;;;;;;;26.90;5.55;;;9.80;99.90;;;;;;5112343;28;20054;-58
2021/03/11 08:25:34;;;;;;;24.73;6.00;;;9.90;99.90;;;;;;5112386;28;20044;-58
2021/03/11 08:28:00;;;;;;;26.05;6.95;;;10.00;99.90;;;;;;5112218;28;20035;-59
2021/03/11 08:30:38;;;;;;;22.73;6.57;;;9.90;99.90;;;;;;5112341;28;20126;-58
2021/03/11 08:33:09;;;;;;;28.20;5.35;;;10.00;99.90;;;;;;5112270;28;20040;-59
2021/03/11 08:35:40;;;;;;;25.65;5.93;;;10.00;99.90;;;;;;5112459;28;20055;-59
2021/03/11 08:38:24;;;;;;;25.88;6.88;;;10.00;99.90;;;;;;5112209;28;20036;-58
2021/03/11 08:40:55;;;;;;;30.15;5.53;;;9.90;99.90;;;;;;5112355;28;20389;-59
2021/03/11 08:43:40;;;;;;;28.50;6.22;;;10.00;99.90;;;;;;5112134;28;20048;-58
2021/03/11 08:46:09;;;;;;;29.65;6.03;;;10.10;99.90;;;;;;5116171;28;20100;-59
2021/03/11 08:48:58;;;;;;;36.03;7.05;;;10.10;99.90;;;;;;5115882;28;20043;-59
2021/03/11 08:51:24;;;;;;;38.85;7.30;;;10.10;99.90;;;;;;5115731;28;20479;-58
2021/03/11 08:53:51;;;;;;;47.10;7.07;;;10.20;99.90;;;;;;5115751;28;20036;-59
2021/03/11 08:56:17;;;;;;;42.95;9.20;;;10.00;99.90;;;;;;5115823;28;20039;-58
2021/03/11 08:58:59;;;;;;;52.30;8.18;;;10.10;99.90;;;;;;5097426;28;20447;-58
2021/03/11 09:01:28;;;;;;;39.47;6.88;;;10.10;99.90;;;;;;5097386;28;20044;-58
2021/03/11 09:03:58;;;;;;;;;;;10.20;99.90;;;;;;5115763;28;20074;-59
2021/03/11 09:06:49;;;;;;;50.40;9.50;;;10.30;99.90;;;;;;5115161;28;20384;-59
2021/03/11 09:09:16;;;;;;;36.97;7.00;;;10.30;99.90;;;;;;5115547;28;20135;-59
2021/03/11 09:11:54;;;;;;;40.15;8.02;;;10.70;99.90;;;;;;5115671;28;20054;-58
2021/03/11 09:14:22;;;;;;;43.95;7.50;;;10.30;99.90;;;;;;5115229;28;20435;-58
2021/03/11 09:16:48;;;;;;;53.03;9.32;;;10.30;99.90;;;;;;5115424;28;20096;-58
2021/03/11 09:19:15;;;;;;;42.83;8.20;;;10.30;99.90;;;;;;5115035;28;20046;-59
2021/03/11 09:21:41;;;;;;;46.70;7.55;;;10.40;99.90;;;;;;5115319;28;20040;-58
2021/03/11 09:24:17;;;;;;;35.85;7.90;;;10.30;99.90;;;;;;5115374;28;20043;-58
2021/03/11 09:26:43;;;;;;;43.97;8.85;;;10.40;99.90;;;;;;5114949;28;20477;-59
2021/03/11 09:29:09;;;;;;;34.70;7.63;;;10.40;99.90;;;;;;5114968;28;20054;-58
2021/03/11 09:31:35;;;;;;;43.53;8.25;;;10.40;99.90;;;;;;5115345;28;20130;-59
2021/03/11 09:34:02;;;;;;;44.33;7.45;;;10.40;99.90;;;;;;5115184;28;20061;-58
2021/03/11 09:36:28;;;;;;;41.08;7.45;;;10.50;99.90;;;;;;5115342;28;20043;-59
2021/03/11 09:39:07;;;;;;;41.63;8.95;;;10.50;99.90;;;;;;5115086;28;20053;-59
2021/03/11 09:41:35;;;;;;;33.87;8.03;;;10.50;99.90;;;;;;5114576;28;20031;-58
2021/03/11 09:44:08;;;;;;;51.45;8.00;;;10.60;99.90;;;;;;5114828;28;20043;-59
2021/03/11 09:46:35;;;;;;;49.13;7.90;;;10.60;99.90;;;;;;5114748;28;20058;-58
2021/03/11 09:49:01;;;;;;;41.25;7.68;;;10.60;99.90;;;;;;5114880;28;20039;-58
2021/03/11 09:51:29;;;;;;;43.83;8.10;;;10.50;99.90;;;;;;5114400;28;20036;-59
2021/03/11 09:54:00;;;;;;;40.25;8.30;;;10.50;99.90;;;;;;5114684;28;20039;-58
2021/03/11 09:56:28;;;;;;;35.55;8.30;;;10.50;99.90;;;;;;5113507;28;20042;-58
2021/03/11 09:59:03;;;;;;;43.10;8.48;;;10.50;99.90;;;;;;5114354;28;20039;-58
2021/03/11 10:01:32;;;;;;;42.40;7.93;;;10.50;99.90;;;;;;5114668;28;20047;-58
2021/03/11 10:03:59;;;;;;;35.17;7.18;;;10.40;99.90;;;;;;5114421;28;20050;-59
2021/03/11 10:06:27;;;;;;;41.47;7.80;;;10.40;99.90;;;;;;5114151;28;20063;-59
2021/03/11 10:08:59;;;;;;;44.08;6.90;;;10.30;99.90;;;;;;5114322;28;20389;-59
2021/03/11 10:11:33;;;;;;;42.22;6.30;;;10.20;99.90;;;;;;5114736;28;20068;-58
2021/03/11 10:14:02;;;;;;;39.88;8.02;;;10.20;99.90;;;;;;5114475;28;20075;-60
2021/03/11 10:16:31;;;;;;;37.67;7.97;;;10.00;99.90;;;;;;5113951;28;20119;-59
2021/03/11 10:19:02;;;;;;;40.70;7.18;;;9.90;99.90;;;;;;5114503;28;20039;-59
2021/03/11 10:21:28;;;;;;;41.75;8.30;;;9.80;99.90;;;;;;5113997;28;20032;-59
2021/03/11 10:23:55;;;;;;;39.05;7.65;;;9.70;99.90;;;;;;5114276;28;20046;-59
2021/03/11 10:26:24;;;;;;;47.25;9.10;;;9.60;99.90;;;;;;5113806;28;20500;-59
2021/03/11 10:28:59;;;;;;;37.47;7.60;;;9.50;99.90;;;;;;5113961;28;20092;-59
2021/03/11 10:31:26;;;;;;;47.70;6.40;;;9.40;99.90;;;;;;5113828;28;20120;-58
2021/03/11 10:34:07;;;;;;;39.00;7.95;;;9.30;99.90;;;;;;5113926;28;20043;-59
2021/03/11 10:36:34;;;;;;;42.42;7.97;;;9.20;99.90;;;;;;5113764;28;20048;-58
2021/03/11 10:39:11;;;;;;;40.53;7.40;;;9.20;99.90;;;;;;5113813;28;20039;-58
2021/03/11 10:41:40;;;;;;;36.08;7.13;;;9.10;99.90;;;;;;5113661;28;20036;-59
2021/03/11 10:44:16;;;;;;;34.03;7.00;;;9.00;99.90;;;;;;5113754;28;20050;-58
2021/03/11 10:46:43;;;;;;;37.92;6.25;;;9.00;99.90;;;;;;5095320;28;20075;-59
2021/03/11 10:49:11;;;;;;;41.00;8.13;;;9.00;99.90;;;;;;5095537;28;20102;-58
2021/03/11 10:51:38;;;;;;;39.55;6.88;;;8.90;99.90;;;;;;5113350;28;20043;-59
2021/03/11 10:54:04;;;;;;;33.95;7.18;;;8.70;99.90;;;;;;5113326;28;20036;-59
2021/03/11 10:56:30;;;;;;;40.80;7.47;;;8.70;99.90;;;;;;5113350;28;20040;-59
2021/03/11 10:59:10;;;;;;;43.05;6.97;;;8.70;99.90;;;;;;5113585;28;20442;-58
2021/03/11 11:01:39;;;;;;;;;;;8.60;99.90;;;;;;5113855;28;20048;-58
2021/03/11 11:04:05;;;;;;;43.40;6.40;;;8.60;99.90;;;;;;5113439;28;20014;-59
2021/03/11 11:06:31;;;;;;;38.30;6.68;;;8.50;99.90;;;;;;5094218;28;20449;-59
2021/03/11 11:08:57;;;;;;;43.10;7.93;;;8.50;99.90;;;;;;5113141;28;20058;-59
2021/03/11 11:11:23;;;;;;;37.47;7.18;;;8.50;99.90;;;;;;5113278;28;20134;-58
2021/03/11 11:13:50;;;;;;;35.03;7.90;;;8.40;99.90;;;;;;5113228;28;20063;-59
2021/03/11 11:16:16;;;;;;;37.15;7.00;;;8.50;99.90;;;;;;5113262;28;20047;-58
2021/03/11 11:18:42;;;;;;;41.88;8.02;;;8.40;99.90;;;;;;5113184;28;20101;-59
2021/03/11 11:21:09;;;;;;;40.75;7.80;;;8.40;99.90;;;;;;5112842;28;20036;-59
2021/03/11 11:23:34;;;;;;;43.63;7.35;;;8.40;99.90;;;;;;5113101;28;20067;-59
2021/03/11 11:26:00;;;;;;;50.70;9.10;;;8.30;99.90;;;;;;5113221;28;20043;-59
2021/03/11 11:28:26;;;;;;;42.08;7.90;;;8.40;99.90;;;;;;5112630;28;20046;-59
2021/03/11 11:30:53;;;;;;;40.78;7.85;;;8.40;99.90;;;;;;5113181;28;20044;-60
2021/03/11 11:33:18;;;;;;;40.70;8.63;;;8.30;99.90;;;;;;5112915;28;20135;-59
2021/03/11 11:35:44;;;;;;;39.30;7.65;;;8.40;99.90;;;;;;5113141;28;20126;-59
2021/03/11 11:38:10;;;;;;;42.40;6.93;;;8.30;99.90;;;;;;5112771;28;20035;-58
2021/03/11 11:40:36;;;;;;;47.47;9.38;;;8.40;99.90;;;;;;5112866;28;20399;-59
2021/03/11 11:43:02;;;;;;;37.20;6.43;;;8.40;99.90;;;;;;5112633;28;20374;-59
2021/03/11 11:45:30;;;;;;;36.58;7.05;;;8.30;99.90;;;;;;5112960;28;20039;-58
2021/03/11 11:47:56;;;;;;;49.35;7.80;;;8.40;99.90;;;;;;5112667;28;20043;-58
2021/03/11 11:50:23;;;;;;;43.45;6.53;;;8.50;99.90;;;;;;5112512;28;20542;-60
2021/03/11 11:52:48;;;;;;;50.88;7.95;;;8.50;99.90;;;;;;5112973;28;20035;-59
2021/03/11 11:55:14;;;;;;;54.05;8.73;;;8.40;99.90;;;;;;5112868;28;20052;-59
2021/03/11 11:57:41;;;;;;;33.83;7.65;;;8.50;99.90;;;;;;5113164;28;20052;-58
2021/03/11 12:00:09;;;;;;;41.92;8.30;;;8.50;99.90;;;;;;5112798;28;20050;-59
2021/03/11 12:02:36;;;;;;;34.53;6.50;;;8.60;99.90;;;;;;5112843;28;20051;-58
2021/03/11 12:05:03;;;;;;;29.20;5.85;;;8.60;99.90;;;;;;5112466;28;20446;-59
2021/03/11 12:07:29;;;;;;;41.22;7.47;;;8.70;99.90;;;;;;5112437;28;20040;-59
2021/03/11 12:09:55;;;;;;;29.75;6.00;;;8.70;99.90;;;;;;5112533;28;20040;-59
2021/03/11 12:12:21;;;;;;;33.40;5.53;;;8.80;99.90;;;;;;5112624;28;20043;-60
2021/03/11 12:14:47;;;;;;;37.88;7.10;;;8.80;99.90;;;;;;5112552;28;20043;-59
2021/03/11 12:17:12;;;;;;;40.13;7.05;;;9.00;99.90;;;;;;5112443;28;20048;-59
2021/03/11 12:19:38;;;;;;;41.17;7.13;;;8.90;99.90;;;;;;5114811;28;20036;-59
2021/03/11 12:22:04;;;;;;;29.77;5.10;;;9.00;99.90;;;;;;5097702;28;20036;-60
2021/03/11 12:24:30;;;;;;;32.63;5.72;;;9.00;99.90;;;;;;5116311;28;20039;-59
2021/03/11 12:26:56;;;;;;;25.75;5.13;;;9.10;99.90;;;;;;5116531;28;20054;-59
2021/03/11 12:29:21;;;;;;;32.28;5.88;;;9.10;99.90;;;;;;5116303;28;20043;-59
2021/03/11 12:31:48;;;;;;;29.48;5.63;;;9.10;99.90;;;;;;5116633;28;20039;-59
2021/03/11 12:34:15;;;;;;;23.65;6.85;;;9.20;99.90;;;;;;5116412;28;20061;-60
2021/03/11 12:36:41;;;;;;;29.33;5.15;;;9.20;99.90;;;;;;5116545;28;20070;-59
2021/03/11 12:39:07;;;;;;;27.08;5.40;;;9.20;99.90;;;;;;5115965;28;20484;-58
2021/03/11 12:41:33;;;;;;;24.27;4.60;;;9.20;99.90;;;;;;5115685;28;20485;-59
2021/03/11 12:43:59;;;;;;;19.20;4.45;;;9.20;99.90;;;;;;5094208;28;20048;-60
2021/03/11 12:46:25;;;;;;;23.38;4.65;;;9.20;99.90;;;;;;5095894;28;20040;-60
2021/03/11 12:48:51;;;;;;;15.45;3.47;;;9.20;99.90;;;;;;5095613;28;20040;-59
2021/03/11 12:51:19;;;;;;;22.52;4.28;;;9.40;99.90;;;;;;5095627;28;20038;-59